createdAt,value
2018-12-20T00:01:32.861Z,5.60
2018-12-20T00:04:07.505Z,5.60
2018-12-20T00:06:42.192Z,5.60
2018-12-20T00:09:17.031Z,5.60
2018-12-20T00:11:51.633Z,5.50
2018-12-20T00:14:29.898Z,5.60
2018-12-20T00:18:07.686Z,5.60
2018-12-20T00:20:42.351Z,5.60
2018-12-20T00:23:16.792Z,5.50
2018-12-20T00:25:51.405Z,5.50
2018-12-20T00:28:26.183Z,5.60
2018-12-20T00:31:00.842Z,5.60
2018-12-20T00:33:35.368Z,5.60
2018-12-20T00:36:09.895Z,5.60
2018-12-20T00:38:44.554Z,5.60
2018-12-20T00:41:19.216Z,5.60
2018-12-20T00:43:53.892Z,5.60
2018-12-20T00:46:28.284Z,5.60
2018-12-20T00:49:03.055Z,5.60
2018-12-20T00:51:37.711Z,5.60
2018-12-20T00:54:12.348Z,5.60
2018-12-20T00:56:46.945Z,5.70
2018-12-20T00:59:21.562Z,5.70
2018-12-20T01:01:56.167Z,5.70
2018-12-20T01:04:30.686Z,5.70
2018-12-20T01:07:05.204Z,5.70
2018-12-20T01:09:39.723Z,5.60
2018-12-20T01:12:14.461Z,5.60
2018-12-20T01:14:48.865Z,5.60
2018-12-20T01:17:25.347Z,5.60
2018-12-20T01:20:00.015Z,5.60
2018-12-20T01:22:34.830Z,5.60
2018-12-20T01:25:09.288Z,5.60
2018-12-20T01:27:43.973Z,5.60
2018-12-20T01:30:18.568Z,5.60
2018-12-20T01:32:53.155Z,5.60
2018-12-20T01:35:27.859Z,5.60
2018-12-20T01:38:02.766Z,5.60
2018-12-20T01:40:37.279Z,5.70
2018-12-20T01:43:11.952Z,5.70
2018-12-20T01:45:46.519Z,5.70
2018-12-20T01:48:27.818Z,5.70
2018-12-20T01:51:02.238Z,5.70
2018-12-20T01:53:36.901Z,5.80
2018-12-20T01:56:11.435Z,5.80
2018-12-20T01:58:45.937Z,5.80
2018-12-20T02:01:20.950Z,5.80
2018-12-20T02:03:55.438Z,5.80
2018-12-20T02:06:30.182Z,5.80
2018-12-20T02:09:08.646Z,5.80
2018-12-20T02:11:43.171Z,5.90
2018-12-20T02:14:17.898Z,5.90
2018-12-20T02:16:52.372Z,5.90
2018-12-20T02:19:27.140Z,5.90
2018-12-20T02:22:01.944Z,5.90
2018-12-20T02:24:36.420Z,5.90
2018-12-20T02:27:11.179Z,5.90
2018-12-20T02:29:46.022Z,5.90
2018-12-20T02:32:21.029Z,5.90
2018-12-20T02:34:55.640Z,5.90
2018-12-20T02:37:31.260Z,5.90
2018-12-20T02:40:06.192Z,5.80
2018-12-20T02:42:40.787Z,5.90
2018-12-20T02:45:15.241Z,5.90
2018-12-20T02:47:50.275Z,5.90
2018-12-20T02:50:24.794Z,5.90
2018-12-20T02:52:59.302Z,5.90
2018-12-20T02:55:34.088Z,5.90
2018-12-20T02:58:08.897Z,5.90
2018-12-20T03:00:43.525Z,5.90
2018-12-20T03:03:18.256Z,5.90
2018-12-20T03:05:52.965Z,5.90
2018-12-20T03:08:27.512Z,5.90
2018-12-20T03:11:02.144Z,5.90
2018-12-20T03:13:36.922Z,5.90
2018-12-20T03:16:11.822Z,5.90
2018-12-20T03:18:46.489Z,5.90
2018-12-20T03:21:21.086Z,5.90
2018-12-20T03:23:55.911Z,5.80
2018-12-20T03:26:30.691Z,5.80
2018-12-20T03:29:05.355Z,5.80
2018-12-20T03:31:39.903Z,5.80
2018-12-20T03:34:14.665Z,5.80
2018-12-20T03:36:49.373Z,5.80
2018-12-20T03:39:23.927Z,5.80
2018-12-20T03:41:58.672Z,5.80
2018-12-20T03:44:33.215Z,5.80
2018-12-20T03:47:07.703Z,5.70
2018-12-20T03:49:42.589Z,5.60
2018-12-20T03:52:17.420Z,5.60
2018-12-20T03:54:52.083Z,5.60
2018-12-20T03:57:26.683Z,5.60
2018-12-20T04:00:01.467Z,5.60
2018-12-20T04:02:36.036Z,5.60
2018-12-20T04:05:10.759Z,5.50
2018-12-20T04:07:45.144Z,5.40
2018-12-20T04:10:19.721Z,5.40
2018-12-20T04:12:54.256Z,5.30
2018-12-20T04:15:37.574Z,5.30
2018-12-20T04:18:05.817Z,5.20
2018-12-20T04:20:40.417Z,5.30
2018-12-20T04:23:15.051Z,5.20
2018-12-20T04:25:49.717Z,5.20
2018-12-20T04:28:24.213Z,5.20
2018-12-20T04:30:58.608Z,5.20
2018-12-20T04:33:33.047Z,5.20
2018-12-20T04:36:07.689Z,5.20
2018-12-20T04:38:42.493Z,5.20
2018-12-20T04:41:16.934Z,5.20
2018-12-20T04:43:51.482Z,5.20
2018-12-20T04:46:26.024Z,5.20
2018-12-20T04:49:00.554Z,5.20
2018-12-20T04:51:35.375Z,5.20
2018-12-20T04:54:09.919Z,5.20
2018-12-20T04:56:44.679Z,5.20
2018-12-20T04:59:19.277Z,5.20
2018-12-20T05:01:53.794Z,5.20
2018-12-20T05:04:28.565Z,5.20
2018-12-20T05:07:03.082Z,5.20
2018-12-20T05:09:37.546Z,5.20
2018-12-20T05:12:12.022Z,5.30
2018-12-20T05:14:46.693Z,5.30
2018-12-20T05:17:21.261Z,5.30
2018-12-20T05:19:56.027Z,5.30
2018-12-20T05:22:30.619Z,5.30
2018-12-20T05:25:05.701Z,5.30
2018-12-20T05:27:40.482Z,5.30
2018-12-20T05:30:15.384Z,5.30
2018-12-20T05:32:50.337Z,5.40
2018-12-20T05:35:25.141Z,5.40
2018-12-20T05:37:59.575Z,5.40
2018-12-20T05:40:34.211Z,5.40
2018-12-20T05:43:08.579Z,5.40
2018-12-20T05:45:43.412Z,5.40
2018-12-20T05:48:18.163Z,5.40
2018-12-20T05:50:53.073Z,5.50
2018-12-20T05:53:27.736Z,5.40
2018-12-20T05:56:08.640Z,3.00
2018-12-20T05:58:44.545Z,5.50
2018-12-20T06:01:19.383Z,5.50
2018-12-20T06:03:53.970Z,5.50
2018-12-20T06:06:28.466Z,5.50
2018-12-20T06:09:05.079Z,5.60
2018-12-20T06:11:39.851Z,5.60
2018-12-20T06:14:14.541Z,5.60
2018-12-20T06:16:49.523Z,5.60
2018-12-20T06:19:24.009Z,5.70
2018-12-20T06:21:58.859Z,5.60
2018-12-20T06:24:33.528Z,5.70
2018-12-20T06:27:08.260Z,5.60
2018-12-20T06:29:42.688Z,5.60
2018-12-20T06:32:17.099Z,5.60
2018-12-20T06:34:51.785Z,5.60
2018-12-20T06:37:26.355Z,5.60
2018-12-20T06:40:00.858Z,5.60
2018-12-20T06:42:35.311Z,5.60
2018-12-20T06:45:09.892Z,5.60
2018-12-20T06:47:44.396Z,5.60
2018-12-20T06:50:18.980Z,5.60
2018-12-20T06:52:53.531Z,5.60
2018-12-20T06:55:28.109Z,5.60
2018-12-20T06:58:02.656Z,5.60
2018-12-20T07:00:37.307Z,5.50
2018-12-20T07:03:11.844Z,5.50
2018-12-20T07:05:46.404Z,5.60
2018-12-20T07:08:20.980Z,5.50
2018-12-20T07:10:55.580Z,5.50
2018-12-20T07:13:30.199Z,5.50
2018-12-20T07:16:04.635Z,5.50
2018-12-20T07:18:39.282Z,5.50
2018-12-20T07:21:13.783Z,5.50
2018-12-20T07:23:48.770Z,5.50
2018-12-20T07:26:23.308Z,5.50
2018-12-20T07:28:57.919Z,5.60
2018-12-20T07:31:32.427Z,5.50
2018-12-20T07:34:06.871Z,5.50
2018-12-20T07:36:41.496Z,5.50
2018-12-20T07:39:15.843Z,5.50
2018-12-20T07:41:56.904Z,5.50
2018-12-20T07:44:31.384Z,5.40
2018-12-20T07:47:05.777Z,5.40
2018-12-20T07:49:41.007Z,5.50
2018-12-20T07:52:15.509Z,5.50
2018-12-20T07:54:50.291Z,5.50
2018-12-20T07:57:25.653Z,5.60
2018-12-20T08:00:01.438Z,5.70
2018-12-20T08:02:37.191Z,5.80
2018-12-20T08:05:11.764Z,5.80
2018-12-20T08:07:46.403Z,6.00
2018-12-20T08:10:21.110Z,6.10
2018-12-20T08:12:56.101Z,6.20
2018-12-20T08:15:30.711Z,6.30
2018-12-20T08:18:06.041Z,6.30
2018-12-20T08:20:40.605Z,6.40
2018-12-20T08:23:15.041Z,6.40
2018-12-20T08:25:50.153Z,6.40
2018-12-20T08:28:24.709Z,6.40
2018-12-20T08:30:59.307Z,6.40
2018-12-20T08:33:33.723Z,6.50
2018-12-20T08:36:08.304Z,6.50
2018-12-20T08:38:42.812Z,6.50
2018-12-20T08:41:17.400Z,6.50
2018-12-20T08:43:51.885Z,6.50
2018-12-20T08:46:26.324Z,6.50
2018-12-20T08:49:00.855Z,6.50
2018-12-20T08:51:37.276Z,6.40
2018-12-20T08:54:11.904Z,6.40
2018-12-20T08:56:46.514Z,6.40
2018-12-20T08:59:21.080Z,6.50
2018-12-20T09:01:55.542Z,6.50
2018-12-20T09:04:29.962Z,6.60
2018-12-20T09:07:04.588Z,6.70
2018-12-20T09:09:39.195Z,6.70
2018-12-20T09:12:13.703Z,6.70
2018-12-20T09:14:48.284Z,6.80
2018-12-20T09:17:22.936Z,6.80
2018-12-20T09:19:57.583Z,6.80
2018-12-20T09:22:32.075Z,6.80
2018-12-20T09:25:06.887Z,6.80
2018-12-20T09:27:41.509Z,6.90
2018-12-20T09:30:16.252Z,6.80
2018-12-20T09:32:50.824Z,6.80
2018-12-20T09:35:26.478Z,6.80
2018-12-20T09:38:01.186Z,6.70
2018-12-20T09:40:35.601Z,6.70
2018-12-20T09:43:11.147Z,6.70
2018-12-20T09:45:45.603Z,6.70
2018-12-20T09:48:20.108Z,6.70
2018-12-20T09:50:54.832Z,6.70
2018-12-20T09:53:29.411Z,6.70
2018-12-20T09:56:03.832Z,6.70
2018-12-20T09:58:38.277Z,6.80
2018-12-20T10:01:12.853Z,6.80
2018-12-20T10:03:47.392Z,6.80
2018-12-20T10:06:21.964Z,6.80
2018-12-20T10:08:57.196Z,6.80
2018-12-20T10:11:31.655Z,6.90
2018-12-20T10:14:06.400Z,6.90
2018-12-20T10:16:40.851Z,6.90
2018-12-20T10:19:15.429Z,6.90
2018-12-20T10:21:49.919Z,6.90
2018-12-20T10:24:24.520Z,6.90
2018-12-20T10:26:59.176Z,6.90
2018-12-20T10:29:33.760Z,7.00
2018-12-20T10:32:08.264Z,7.00
2018-12-20T10:34:42.951Z,8.50
2018-12-20T10:37:17.511Z,6.90
2018-12-20T10:39:52.183Z,6.90
2018-12-20T10:42:26.529Z,6.90
2018-12-20T10:45:01.100Z,7.00
2018-12-20T10:47:35.684Z,7.00
2018-12-20T10:50:10.439Z,7.10
2018-12-20T10:52:45.027Z,7.20
2018-12-20T10:55:19.653Z,7.30
2018-12-20T10:57:54.287Z,7.30
2018-12-20T11:00:32.934Z,7.30
2018-12-20T11:03:13.008Z,7.40
2018-12-20T11:05:53.090Z,7.40
2018-12-20T11:08:29.864Z,7.40
2018-12-20T11:11:06.822Z,7.30
2018-12-20T11:13:41.176Z,7.40
2018-12-20T11:16:15.786Z,7.40
2018-12-20T11:18:50.240Z,7.50
2018-12-20T11:21:24.756Z,7.60
2018-12-20T11:23:59.141Z,7.70
2018-12-20T11:26:33.504Z,7.70
2018-12-20T11:29:08.084Z,7.70
2018-12-20T11:31:42.652Z,7.70
2018-12-20T11:34:17.859Z,7.60
2018-12-20T11:36:52.208Z,7.60
2018-12-20T11:39:26.744Z,7.60
2018-12-20T11:42:01.366Z,7.60
2018-12-20T11:44:35.819Z,7.50
2018-12-20T11:47:14.624Z,7.50
2018-12-20T11:49:49.264Z,7.50
2018-12-20T11:52:24.074Z,7.50
2018-12-20T11:54:58.555Z,7.50
2018-12-20T11:57:33.185Z,7.50
2018-12-20T12:00:10.144Z,7.60
2018-12-20T12:02:44.725Z,7.60
2018-12-20T12:05:19.248Z,7.60
2018-12-20T12:07:53.907Z,7.70
2018-12-20T12:10:28.293Z,7.70
2018-12-20T12:13:02.770Z,7.70
2018-12-20T12:15:37.358Z,7.80
2018-12-20T12:18:11.868Z,7.80
2018-12-20T12:20:46.537Z,7.80
2018-12-20T12:23:21.089Z,7.90
2018-12-20T12:25:55.836Z,7.90
2018-12-20T12:28:30.839Z,7.90
2018-12-20T12:31:05.532Z,7.90
2018-12-20T12:33:40.027Z,7.90
2018-12-20T12:36:14.603Z,8.00
2018-12-20T12:38:49.373Z,8.00
2018-12-20T12:41:23.920Z,8.00
2018-12-20T12:43:58.280Z,8.00
2018-12-20T12:46:32.960Z,8.00
2018-12-20T12:49:07.659Z,8.00
2018-12-20T12:51:43.739Z,8.00
2018-12-20T12:54:18.428Z,8.00
2018-12-20T12:56:53.003Z,8.10
2018-12-20T12:59:28.327Z,8.00
2018-12-20T13:02:02.799Z,8.00
2018-12-20T13:04:37.235Z,8.00
2018-12-20T13:07:11.976Z,8.00
2018-12-20T13:09:46.764Z,8.00
2018-12-20T13:12:25.049Z,8.10
2018-12-20T13:14:59.544Z,8.10
2018-12-20T13:17:33.997Z,8.20
2018-12-20T13:20:10.159Z,8.30
2018-12-20T13:22:44.663Z,8.40
2018-12-20T13:25:19.163Z,8.40
2018-12-20T13:27:54.407Z,8.10
2018-12-20T13:30:28.963Z,8.10
2018-12-20T13:33:03.576Z,8.10
2018-12-20T13:35:37.997Z,8.10
2018-12-20T13:38:13.618Z,8.20
2018-12-20T13:40:48.319Z,8.40
2018-12-20T13:43:22.808Z,8.40
2018-12-20T13:45:57.461Z,8.40
2018-12-20T13:48:31.875Z,8.50
2018-12-20T13:51:06.550Z,8.60
2018-12-20T13:53:41.060Z,8.50
2018-12-20T13:56:15.613Z,8.50
2018-12-20T13:58:50.011Z,8.50
2018-12-20T14:01:24.636Z,8.50
2018-12-20T14:03:59.252Z,8.60
2018-12-20T14:06:33.620Z,8.60
2018-12-20T14:09:09.634Z,8.60
2018-12-20T14:11:44.163Z,8.70
2018-12-20T14:14:18.794Z,8.70
2018-12-20T14:16:53.369Z,8.60
2018-12-20T14:19:27.832Z,8.50
2018-12-20T14:22:02.414Z,8.40
2018-12-20T14:24:36.762Z,8.30
2018-12-20T14:27:12.620Z,8.10
2018-12-20T14:29:47.584Z,11.10
2018-12-20T14:32:21.983Z,7.90
2018-12-20T14:34:56.541Z,7.90
2018-12-20T14:37:31.143Z,7.90
2018-12-20T14:40:08.056Z,7.90
2018-12-20T14:42:42.499Z,7.90
2018-12-20T14:45:17.061Z,7.90
2018-12-20T14:47:51.675Z,8.00
2018-12-20T14:50:26.311Z,8.00
2018-12-20T14:53:00.936Z,8.00
2018-12-20T14:55:35.407Z,8.00
2018-12-20T14:58:09.971Z,8.00
2018-12-20T15:00:44.710Z,7.90
2018-12-20T15:03:19.151Z,7.90
2018-12-20T15:05:53.843Z,7.90
2018-12-20T15:08:28.395Z,7.80
2018-12-20T15:11:03.056Z,7.80
2018-12-20T15:13:37.459Z,7.80
2018-12-20T15:16:12.076Z,7.80
2018-12-20T15:18:47.826Z,7.90
2018-12-20T15:21:22.927Z,7.80
2018-12-20T15:23:57.348Z,7.80
2018-12-20T15:26:31.884Z,7.80
2018-12-20T15:29:06.363Z,7.70
2018-12-20T15:31:41.046Z,7.60
2018-12-20T15:34:16.089Z,7.70
2018-12-20T15:36:50.564Z,7.60
2018-12-20T15:39:25.280Z,7.50
2018-12-20T15:42:00.116Z,7.50
2018-12-20T15:44:35.110Z,7.50
2018-12-20T15:47:09.674Z,7.40
2018-12-20T15:49:44.146Z,7.40
2018-12-20T15:52:18.723Z,7.40
2018-12-20T15:54:53.415Z,7.60
2018-12-20T15:57:28.040Z,7.30
2018-12-20T16:00:02.724Z,7.20
2018-12-20T16:02:38.265Z,7.20
2018-12-20T16:05:12.811Z,7.20
2018-12-20T16:07:49.263Z,7.20
2018-12-20T16:10:23.820Z,7.10
2018-12-20T16:12:58.233Z,7.00
2018-12-20T16:15:32.710Z,7.10
2018-12-20T16:18:07.256Z,7.10
2018-12-20T16:20:41.672Z,7.10
2018-12-20T16:23:16.159Z,7.10
2018-12-20T16:25:50.467Z,7.20
2018-12-20T16:28:25.086Z,7.30
2018-12-20T16:30:59.536Z,7.30
2018-12-20T16:33:33.976Z,7.40
2018-12-20T16:36:08.504Z,7.40
2018-12-20T16:38:43.135Z,7.40
2018-12-20T16:41:17.524Z,7.40
2018-12-20T16:43:52.156Z,7.40
2018-12-20T16:46:26.683Z,7.50
2018-12-20T16:49:01.283Z,7.50
2018-12-20T16:51:36.812Z,7.60
2018-12-20T16:54:11.302Z,7.50
2018-12-20T16:56:45.676Z,7.50
2018-12-20T16:59:20.219Z,7.50
2018-12-20T17:01:54.735Z,7.40
2018-12-20T17:04:29.505Z,7.40
2018-12-20T17:07:05.845Z,7.40
2018-12-20T17:09:40.875Z,7.40
2018-12-20T17:12:15.337Z,7.40
2018-12-20T17:14:49.995Z,7.40
2018-12-20T17:17:24.678Z,7.40
2018-12-20T17:19:59.927Z,7.40
2018-12-20T17:22:34.593Z,7.40
2018-12-20T17:25:09.503Z,7.40
2018-12-20T17:27:45.866Z,7.40
2018-12-20T17:30:20.535Z,7.40
2018-12-20T17:32:55.253Z,7.40
2018-12-20T17:35:29.691Z,7.40
2018-12-20T17:38:04.232Z,7.40
2018-12-20T17:40:40.001Z,7.50
2018-12-20T17:43:14.443Z,7.50
2018-12-20T17:45:49.177Z,7.60
2018-12-20T17:48:33.692Z,7.50
2018-12-20T17:51:09.768Z,7.50
2018-12-20T17:53:45.684Z,7.50
2018-12-20T17:56:20.103Z,7.50
2018-12-20T17:58:54.541Z,7.50
2018-12-20T18:01:30.532Z,7.60
2018-12-20T18:04:04.996Z,7.60
2018-12-20T18:06:39.387Z,7.60
2018-12-20T18:09:13.968Z,7.60
2018-12-20T18:11:50.884Z,7.60
2018-12-20T18:14:26.176Z,7.70
2018-12-20T18:17:03.124Z,7.70
2018-12-20T18:19:41.566Z,7.70
2018-12-20T18:22:18.448Z,7.70
2018-12-20T18:24:53.832Z,7.70
2018-12-20T18:27:40.427Z,7.70
2018-12-20T18:30:20.853Z,7.70
2018-12-20T18:32:55.447Z,7.80
2018-12-20T18:35:29.892Z,7.80
2018-12-20T18:38:04.506Z,7.80
2018-12-20T18:40:39.103Z,7.80
2018-12-20T18:43:13.639Z,7.80
2018-12-20T18:45:48.165Z,7.80
2018-12-20T18:48:22.967Z,7.80
2018-12-20T18:50:57.539Z,7.80
2018-12-20T18:53:32.063Z,7.80
2018-12-20T18:56:06.688Z,7.70
2018-12-20T18:58:41.205Z,7.70
2018-12-20T19:01:15.753Z,7.70
2018-12-20T19:03:50.691Z,7.70
2018-12-20T19:06:25.164Z,7.60
2018-12-20T19:08:59.644Z,7.60
2018-12-20T19:11:34.999Z,7.60
2018-12-20T19:14:09.514Z,7.60
2018-12-20T19:16:44.048Z,7.60
2018-12-20T19:19:18.752Z,7.60
2018-12-20T19:21:53.282Z,7.60
2018-12-20T19:24:27.959Z,7.60
2018-12-20T19:27:02.644Z,7.60
2018-12-20T19:29:38.074Z,7.60
2018-12-20T19:32:12.789Z,7.60
2018-12-20T19:34:47.491Z,7.60
2018-12-20T19:37:22.162Z,7.60
2018-12-20T19:40:00.944Z,7.60
2018-12-20T19:42:35.489Z,7.60
2018-12-20T19:45:10.155Z,7.60
2018-12-20T19:47:44.842Z,7.60
2018-12-20T19:50:21.898Z,7.60
2018-12-20T19:52:56.779Z,7.60
2018-12-20T19:55:31.317Z,7.60
2018-12-20T19:58:05.895Z,7.60
2018-12-20T20:00:40.408Z,7.60
2018-12-20T20:03:14.772Z,7.60
2018-12-20T20:05:53.051Z,7.60
2018-12-20T20:08:27.542Z,7.70
2018-12-20T20:11:02.235Z,7.60
2018-12-20T20:13:37.835Z,7.70
2018-12-20T20:16:12.311Z,7.70
2018-12-20T20:18:46.865Z,7.70
2018-12-20T20:21:24.177Z,7.70
2018-12-20T20:23:58.923Z,7.60
2018-12-20T20:26:33.676Z,7.60
2018-12-20T20:29:08.371Z,7.60
2018-12-20T20:31:48.670Z,7.60
2018-12-20T20:34:23.276Z,7.50
2018-12-20T20:37:09.752Z,7.50
2018-12-20T20:39:44.544Z,7.40
2018-12-20T20:42:25.484Z,7.40
2018-12-20T20:45:00.006Z,7.40
2018-12-20T20:47:34.375Z,7.30
2018-12-20T20:50:09.327Z,7.30
2018-12-20T20:52:45.122Z,7.20
2018-12-20T20:55:21.782Z,7.20
2018-12-20T20:57:56.336Z,7.20
2018-12-20T21:00:30.938Z,7.20
2018-12-20T21:03:05.659Z,7.20
2018-12-20T21:05:40.320Z,7.20
2018-12-20T21:08:14.816Z,7.20
2018-12-20T21:10:49.296Z,7.20
2018-12-20T21:13:23.675Z,7.20
2018-12-20T21:15:58.620Z,7.20
2018-12-20T21:18:33.195Z,7.30
2018-12-20T21:21:07.696Z,7.30
2018-12-20T21:23:42.352Z,7.30
2018-12-20T21:26:16.771Z,7.40
2018-12-20T21:28:51.404Z,7.40
2018-12-20T21:31:25.831Z,7.50
2018-12-20T21:34:00.522Z,7.40
2018-12-20T21:36:35.181Z,7.40
2018-12-20T21:39:09.832Z,7.30
2018-12-20T21:41:44.245Z,7.30
2018-12-20T21:44:18.698Z,7.30
2018-12-20T21:46:53.264Z,7.30
2018-12-20T21:49:27.708Z,7.30
2018-12-20T21:52:02.416Z,7.40
2018-12-20T21:54:37.556Z,7.50
2018-12-20T21:57:12.208Z,7.50
2018-12-20T21:59:48.627Z,7.50
2018-12-20T22:02:23.363Z,7.50
2018-12-20T22:04:57.890Z,7.50
2018-12-20T22:07:32.408Z,7.50
2018-12-20T22:10:08.095Z,7.50
2018-12-20T22:12:43.696Z,7.50
2018-12-20T22:15:18.286Z,7.40
2018-12-20T22:17:52.665Z,7.40
2018-12-20T22:20:27.232Z,7.40
2018-12-20T22:23:03.332Z,7.40
2018-12-20T22:25:37.836Z,7.40
2018-12-20T22:28:12.255Z,7.40
2018-12-20T22:30:46.705Z,7.40
2018-12-20T22:33:21.277Z,7.50
2018-12-20T22:35:55.848Z,7.40
2018-12-20T22:38:30.541Z,7.40
2018-12-20T22:41:05.119Z,7.40
2018-12-20T22:43:39.751Z,7.40
2018-12-20T22:46:15.413Z,7.40
2018-12-20T22:48:51.068Z,7.40
2018-12-20T22:51:25.648Z,7.40
2018-12-20T22:54:00.336Z,7.40
2018-12-20T22:56:35.092Z,7.40
2018-12-20T22:59:09.716Z,7.40
2018-12-20T23:01:45.571Z,7.40
2018-12-20T23:04:21.036Z,7.50
2018-12-20T23:06:56.328Z,7.50
2018-12-20T23:12:23.702Z,7.50
2018-12-20T23:15:00.094Z,7.50
2018-12-20T23:17:59.827Z,7.50
2018-12-20T23:20:35.147Z,7.50
2018-12-20T23:23:12.601Z,7.50
2018-12-20T23:25:50.467Z,7.50
2018-12-20T23:28:27.904Z,7.50
2018-12-20T23:31:16.133Z,7.50
2018-12-20T23:33:52.189Z,7.50
2018-12-20T23:36:30.081Z,7.60
2018-12-20T23:39:08.012Z,7.60
2018-12-20T23:41:57.599Z,7.60
2018-12-20T23:44:36.938Z,7.50
2018-12-20T23:47:13.082Z,7.50
2018-12-20T23:50:06.300Z,7.50
2018-12-20T23:52:49.514Z,7.50
2018-12-20T23:55:24.134Z,9.30
2018-12-20T23:58:01.841Z,7.50
